sensor_id;sensor_type;location;lat;lon;timestamp;P1;durP1;ratioP1;P2;durP2;ratioP2
43819;SDS011;67762;52.476;6.046;2023-06-19T00:02:09;63.85;;;59.70;;
43819;SDS011;67762;52.476;6.046;2023-06-19T00:04:34;56.53;;;52.80;;
43819;SDS011;67762;52.476;6.046;2023-06-19T00:07:00;62.28;;;58.50;;
43819;SDS011;67762;52.476;6.046;2023-06-19T00:09:26;53.72;;;50.33;;
43819;SDS011;67762;52.476;6.046;2023-06-19T00:11:51;62.53;;;58.80;;
43819;SDS011;67762;52.476;6.046;2023-06-19T00:14:17;55.70;;;52.10;;
43819;SDS011;67762;52.476;6.046;2023-06-19T00:16:43;55.42;;;52.05;;
43819;SDS011;67762;52.476;6.046;2023-06-19T00:19:09;57.63;;;54.10;;
43819;SDS011;67762;52.476;6.046;2023-06-19T00:21:37;57.22;;;53.60;;
43819;SDS011;67762;52.476;6.046;2023-06-19T00:24:03;57.20;;;53.75;;
43819;SDS011;67762;52.476;6.046;2023-06-19T00:26:29;74.15;;;69.97;;
43819;SDS011;67762;52.476;6.046;2023-06-19T00:28:55;51.28;;;48.03;;
43819;SDS011;67762;52.476;6.046;2023-06-19T00:31:21;55.92;;;52.60;;
43819;SDS011;67762;52.476;6.046;2023-06-19T00:33:48;66.35;;;62.22;;
43819;SDS011;67762;52.476;6.046;2023-06-19T00:36:15;64.90;;;61.17;;
43819;SDS011;67762;52.476;6.046;2023-06-19T00:38:45;53.40;;;50.10;;
43819;SDS011;67762;52.476;6.046;2023-06-19T00:41:11;57.85;;;54.28;;
43819;SDS011;67762;52.476;6.046;2023-06-19T00:43:37;55.05;;;51.85;;
43819;SDS011;67762;52.476;6.046;2023-06-19T00:46:03;57.45;;;53.53;;
43819;SDS011;67762;52.476;6.046;2023-06-19T00:48:29;54.83;;;51.33;;
43819;SDS011;67762;52.476;6.046;2023-06-19T00:50:56;56.90;;;53.55;;
43819;SDS011;67762;52.476;6.046;2023-06-19T00:53:22;55.33;;;52.05;;
43819;SDS011;67762;52.476;6.046;2023-06-19T00:55:50;56.22;;;52.85;;
43819;SDS011;67762;52.476;6.046;2023-06-19T00:58:20;53.10;;;49.95;;
43819;SDS011;67762;52.476;6.046;2023-06-19T01:00:47;51.08;;;48.10;;
43819;SDS011;67762;52.476;6.046;2023-06-19T01:03:13;50.80;;;47.53;;
43819;SDS011;67762;52.476;6.046;2023-06-19T01:05:39;55.67;;;52.25;;
43819;SDS011;67762;52.476;6.046;2023-06-19T01:08:26;56.42;;;53.03;;
43819;SDS011;67762;52.476;6.046;2023-06-19T01:11:06;53.03;;;49.83;;
43819;SDS011;67762;52.476;6.046;2023-06-19T01:13:58;49.30;;;46.20;;
43819;SDS011;67762;52.476;6.046;2023-06-19T01:16:25;50.28;;;47.17;;
43819;SDS011;67762;52.476;6.046;2023-06-19T01:18:51;50.75;;;47.80;;
43819;SDS011;67762;52.476;6.046;2023-06-19T01:21:18;46.53;;;43.72;;
43819;SDS011;67762;52.476;6.046;2023-06-19T01:23:44;49.00;;;46.13;;
43819;SDS011;67762;52.476;6.046;2023-06-19T01:26:11;55.85;;;52.50;;
43819;SDS011;67762;52.476;6.046;2023-06-19T01:28:38;57.88;;;54.40;;
43819;SDS011;67762;52.476;6.046;2023-06-19T01:31:13;51.13;;;48.25;;
43819;SDS011;67762;52.476;6.046;2023-06-19T01:33:45;74.50;;;70.18;;
43819;SDS011;67762;52.476;6.046;2023-06-19T01:36:14;63.20;;;59.33;;
43819;SDS011;67762;52.476;6.046;2023-06-19T01:38:42;50.45;;;47.40;;
43819;SDS011;67762;52.476;6.046;2023-06-19T01:41:10;54.53;;;51.10;;
43819;SDS011;67762;52.476;6.046;2023-06-19T01:43:36;88.30;;;82.80;;
43819;SDS011;67762;52.476;6.046;2023-06-19T01:46:03;64.53;;;61.00;;
43819;SDS011;67762;52.476;6.046;2023-06-19T01:48:29;62.42;;;58.95;;
43819;SDS011;67762;52.476;6.046;2023-06-19T01:50:55;65.72;;;62.03;;
43819;SDS011;67762;52.476;6.046;2023-06-19T01:53:20;56.08;;;52.88;;
43819;SDS011;67762;52.476;6.046;2023-06-19T01:55:46;109.13;;;102.80;;
43819;SDS011;67762;52.476;6.046;2023-06-19T01:58:12;157.98;;;149.63;;
43819;SDS011;67762;52.476;6.046;2023-06-19T02:00:37;84.22;;;79.63;;
43819;SDS011;67762;52.476;6.046;2023-06-19T02:03:04;63.65;;;59.92;;
43819;SDS011;67762;52.476;6.046;2023-06-19T02:05:30;62.05;;;58.65;;
43819;SDS011;67762;52.476;6.046;2023-06-19T02:07:56;47.72;;;45.25;;
43819;SDS011;67762;52.476;6.046;2023-06-19T02:10:22;95.88;;;90.63;;
43819;SDS011;67762;52.476;6.046;2023-06-19T02:12:47;65.85;;;62.10;;
43819;SDS011;67762;52.476;6.046;2023-06-19T02:15:13;134.15;;;127.05;;
43819;SDS011;67762;52.476;6.046;2023-06-19T02:17:39;151.10;;;143.20;;
43819;SDS011;67762;52.476;6.046;2023-06-19T02:20:04;99.78;;;94.57;;
43819;SDS011;67762;52.476;6.046;2023-06-19T02:22:39;138.82;;;131.85;;
43819;SDS011;67762;52.476;6.046;2023-06-19T02:25:05;179.40;;;170.30;;
43819;SDS011;67762;52.476;6.046;2023-06-19T02:27:31;141.25;;;133.73;;
43819;SDS011;67762;52.476;6.046;2023-06-19T02:29:58;1072.95;;;569.00;;
43819;SDS011;67762;52.476;6.046;2023-06-19T02:32:24;1548.93;;;795.70;;
43819;SDS011;67762;52.476;6.046;2023-06-19T02:34:50;1521.20;;;769.88;;
43819;SDS011;67762;52.476;6.046;2023-06-19T02:37:15;211.05;;;198.05;;
43819;SDS011;67762;52.476;6.046;2023-06-19T02:39:41;120.53;;;113.75;;
43819;SDS011;67762;52.476;6.046;2023-06-19T02:42:06;166.27;;;156.50;;
43819;SDS011;67762;52.476;6.046;2023-06-19T02:44:32;1070.25;;;564.60;;
43819;SDS011;67762;52.476;6.046;2023-06-19T02:46:58;1999.90;;;999.90;;
43819;SDS011;67762;52.476;6.046;2023-06-19T02:49:24;1525.85;;;774.28;;
43819;SDS011;67762;52.476;6.046;2023-06-19T02:51:49;1999.90;;;999.90;;
43819;SDS011;67762;52.476;6.046;2023-06-19T02:54:15;97.20;;;91.82;;
43819;SDS011;67762;52.476;6.046;2023-06-19T02:56:40;1999.90;;;999.90;;
43819;SDS011;67762;52.476;6.046;2023-06-19T02:59:06;1999.90;;;999.90;;
43819;SDS011;67762;52.476;6.046;2023-06-19T03:01:31;578.08;;;323.95;;
43819;SDS011;67762;52.476;6.046;2023-06-19T03:03:57;1999.90;;;999.90;;
43819;SDS011;67762;52.476;6.046;2023-06-19T03:06:23;1999.90;;;999.90;;
43819;SDS011;67762;52.476;6.046;2023-06-19T03:08:48;1999.90;;;999.90;;
43819;SDS011;67762;52.476;6.046;2023-06-19T03:11:14;1999.90;;;999.90;;
43819;SDS011;67762;52.476;6.046;2023-06-19T03:13:47;1999.90;;;999.90;;
43819;SDS011;67762;52.476;6.046;2023-06-19T03:18:41;1999.90;;;999.90;;
43819;SDS011;67762;52.476;6.046;2023-06-19T03:21:10;1999.90;;;999.90;;
43819;SDS011;67762;52.476;6.046;2023-06-19T03:23:36;1999.90;;;999.90;;
43819;SDS011;67762;52.476;6.046;2023-06-19T03:26:02;1999.90;;;999.90;;
43819;SDS011;67762;52.476;6.046;2023-06-19T03:28:28;1999.90;;;999.90;;
43819;SDS011;67762;52.476;6.046;2023-06-19T03:30:54;1999.90;;;999.90;;
43819;SDS011;67762;52.476;6.046;2023-06-19T03:33:22;1999.90;;;999.90;;
43819;SDS011;67762;52.476;6.046;2023-06-19T03:35:47;1999.90;;;999.90;;
43819;SDS011;67762;52.476;6.046;2023-06-19T03:38:52;1999.90;;;999.90;;
43819;SDS011;67762;52.476;6.046;2023-06-19T03:41:23;1999.90;;;999.90;;
43819;SDS011;67762;52.476;6.046;2023-06-19T03:43:49;1999.90;;;999.90;;
43819;SDS011;67762;52.476;6.046;2023-06-19T03:46:15;1999.90;;;999.90;;
43819;SDS011;67762;52.476;6.046;2023-06-19T03:48:40;1999.90;;;999.90;;
43819;SDS011;67762;52.476;6.046;2023-06-19T03:51:06;1999.90;;;999.90;;
43819;SDS011;67762;52.476;6.046;2023-06-19T03:53:32;1999.90;;;999.90;;
43819;SDS011;67762;52.476;6.046;2023-06-19T03:55:57;1999.90;;;999.90;;
43819;SDS011;67762;52.476;6.046;2023-06-19T03:58:23;1999.90;;;999.90;;
43819;SDS011;67762;52.476;6.046;2023-06-19T04:00:48;1999.90;;;999.90;;
43819;SDS011;67762;52.476;6.046;2023-06-19T04:03:14;1999.90;;;999.90;;
43819;SDS011;67762;52.476;6.046;2023-06-19T04:05:40;1999.90;;;999.90;;
43819;SDS011;67762;52.476;6.046;2023-06-19T04:08:07;1999.90;;;999.90;;
43819;SDS011;67762;52.476;6.046;2023-06-19T04:10:33;1999.90;;;999.90;;
43819;SDS011;67762;52.476;6.046;2023-06-19T04:12:59;1999.90;;;999.90;;
43819;SDS011;67762;52.476;6.046;2023-06-19T04:15:25;1999.90;;;999.90;;
43819;SDS011;67762;52.476;6.046;2023-06-19T04:17:50;1999.90;;;999.90;;
43819;SDS011;67762;52.476;6.046;2023-06-19T04:20:16;1999.90;;;999.90;;
43819;SDS011;67762;52.476;6.046;2023-06-19T04:22:41;1999.90;;;999.90;;
43819;SDS011;67762;52.476;6.046;2023-06-19T04:25:08;1999.90;;;999.90;;
43819;SDS011;67762;52.476;6.046;2023-06-19T04:27:35;1999.90;;;999.90;;
43819;SDS011;67762;52.476;6.046;2023-06-19T04:30:04;1999.90;;;999.90;;
43819;SDS011;67762;52.476;6.046;2023-06-19T04:32:31;89.53;;;85.00;;
43819;SDS011;67762;52.476;6.046;2023-06-19T04:34:58;105.05;;;99.60;;
43819;SDS011;67762;52.476;6.046;2023-06-19T04:37:24;1999.90;;;999.90;;
43819;SDS011;67762;52.476;6.046;2023-06-19T04:39:49;1999.90;;;999.90;;
43819;SDS011;67762;52.476;6.046;2023-06-19T04:42:16;1999.90;;;999.90;;
43819;SDS011;67762;52.476;6.046;2023-06-19T04:44:46;1999.90;;;999.90;;
43819;SDS011;67762;52.476;6.046;2023-06-19T04:47:12;1999.90;;;999.90;;
43819;SDS011;67762;52.476;6.046;2023-06-19T04:49:38;1999.90;;;999.90;;
43819;SDS011;67762;52.476;6.046;2023-06-19T04:52:04;1999.90;;;999.90;;
43819;SDS011;67762;52.476;6.046;2023-06-19T04:54:30;1999.90;;;999.90;;
43819;SDS011;67762;52.476;6.046;2023-06-19T04:56:57;1999.90;;;999.90;;
43819;SDS011;67762;52.476;6.046;2023-06-19T04:59:23;1999.90;;;999.90;;
43819;SDS011;67762;52.476;6.046;2023-06-19T05:01:49;1999.90;;;999.90;;
43819;SDS011;67762;52.476;6.046;2023-06-19T05:04:19;1999.90;;;999.90;;
43819;SDS011;67762;52.476;6.046;2023-06-19T05:06:45;1520.82;;;769.53;;
43819;SDS011;67762;52.476;6.046;2023-06-19T05:09:10;1999.90;;;999.90;;
43819;SDS011;67762;52.476;6.046;2023-06-19T05:11:36;1999.90;;;999.90;;
43819;SDS011;67762;52.476;6.046;2023-06-19T05:14:02;1999.90;;;999.90;;
43819;SDS011;67762;52.476;6.046;2023-06-19T05:16:28;1999.90;;;999.90;;
43819;SDS011;67762;52.476;6.046;2023-06-19T05:18:54;1999.90;;;999.90;;
43819;SDS011;67762;52.476;6.046;2023-06-19T05:21:19;1999.90;;;999.90;;
43819;SDS011;67762;52.476;6.046;2023-06-19T05:23:45;1999.90;;;999.90;;
43819;SDS011;67762;52.476;6.046;2023-06-19T05:26:19;162.15;;;152.43;;
43819;SDS011;67762;52.476;6.046;2023-06-19T05:28:45;1079.47;;;575.30;;
43819;SDS011;67762;52.476;6.046;2023-06-19T05:31:11;1066.60;;;562.78;;
43819;SDS011;67762;52.476;6.046;2023-06-19T05:33:37;1055.90;;;552.88;;
43819;SDS011;67762;52.476;6.046;2023-06-19T05:36:02;157.45;;;148.77;;
43819;SDS011;67762;52.476;6.046;2023-06-19T05:38:28;1069.00;;;565.38;;
43819;SDS011;67762;52.476;6.046;2023-06-19T05:40:56;1521.50;;;770.30;;
43819;SDS011;67762;52.476;6.046;2023-06-19T05:43:22;1057.95;;;554.78;;
43819;SDS011;67762;52.476;6.046;2023-06-19T05:45:47;1088.97;;;584.13;;
43819;SDS011;67762;52.476;6.046;2023-06-19T05:48:13;294.85;;;274.02;;
43819;SDS011;67762;52.476;6.046;2023-06-19T05:50:39;218.98;;;204.65;;
43819;SDS011;67762;52.476;6.046;2023-06-19T05:53:05;1999.90;;;999.90;;
43819;SDS011;67762;52.476;6.046;2023-06-19T05:55:31;1999.90;;;999.90;;
43819;SDS011;67762;52.476;6.046;2023-06-19T05:57:56;1530.65;;;779.03;;
43819;SDS011;67762;52.476;6.046;2023-06-19T06:00:22;139.95;;;132.57;;
43819;SDS011;67762;52.476;6.046;2023-06-19T06:02:48;1999.90;;;999.90;;
43819;SDS011;67762;52.476;6.046;2023-06-19T06:05:15;1999.90;;;999.90;;
43819;SDS011;67762;52.476;6.046;2023-06-19T06:07:42;1999.90;;;999.90;;
43819;SDS011;67762;52.476;6.046;2023-06-19T06:10:08;1999.90;;;999.90;;
43819;SDS011;67762;52.476;6.046;2023-06-19T06:12:34;1999.90;;;999.90;;
43819;SDS011;67762;52.476;6.046;2023-06-19T06:15:04;1999.90;;;999.90;;
43819;SDS011;67762;52.476;6.046;2023-06-19T06:17:31;1999.90;;;999.90;;
43819;SDS011;67762;52.476;6.046;2023-06-19T06:19:56;1999.90;;;999.90;;
43819;SDS011;67762;52.476;6.046;2023-06-19T06:22:22;1999.90;;;999.90;;
43819;SDS011;67762;52.476;6.046;2023-06-19T06:24:47;1999.90;;;999.90;;
43819;SDS011;67762;52.476;6.046;2023-06-19T06:27:13;1999.90;;;999.90;;
43819;SDS011;67762;52.476;6.046;2023-06-19T06:29:39;1999.90;;;999.90;;
43819;SDS011;67762;52.476;6.046;2023-06-19T06:32:05;1521.90;;;770.40;;
43819;SDS011;67762;52.476;6.046;2023-06-19T06:34:33;1999.90;;;999.90;;
43819;SDS011;67762;52.476;6.046;2023-06-19T06:36:59;1999.90;;;999.90;;
43819;SDS011;67762;52.476;6.046;2023-06-19T06:39:25;1999.90;;;999.90;;
43819;SDS011;67762;52.476;6.046;2023-06-19T06:41:51;1999.90;;;999.90;;
43819;SDS011;67762;52.476;6.046;2023-06-19T06:44:17;1999.90;;;999.90;;
43819;SDS011;67762;52.476;6.046;2023-06-19T06:46:42;1999.90;;;999.90;;
43819;SDS011;67762;52.476;6.046;2023-06-19T06:49:08;1999.90;;;999.90;;
43819;SDS011;67762;52.476;6.046;2023-06-19T06:51:34;1999.90;;;999.90;;
43819;SDS011;67762;52.476;6.046;2023-06-19T06:53:59;1999.90;;;999.90;;
43819;SDS011;67762;52.476;6.046;2023-06-19T06:56:25;1999.90;;;999.90;;
43819;SDS011;67762;52.476;6.046;2023-06-19T06:58:51;1999.90;;;999.90;;
43819;SDS011;67762;52.476;6.046;2023-06-19T07:01:17;1999.90;;;999.90;;
43819;SDS011;67762;52.476;6.046;2023-06-19T07:03:42;1999.90;;;999.90;;
43819;SDS011;67762;52.476;6.046;2023-06-19T07:06:08;1999.90;;;999.90;;
43819;SDS011;67762;52.476;6.046;2023-06-19T07:08:34;1999.90;;;999.90;;
43819;SDS011;67762;52.476;6.046;2023-06-19T07:10:59;1999.90;;;999.90;;
43819;SDS011;67762;52.476;6.046;2023-06-19T07:13:25;1999.90;;;999.90;;
43819;SDS011;67762;52.476;6.046;2023-06-19T07:15:51;1999.90;;;999.90;;
43819;SDS011;67762;52.476;6.046;2023-06-19T07:18:17;1999.90;;;999.90;;
43819;SDS011;67762;52.476;6.046;2023-06-19T07:20:48;1999.90;;;999.90;;
43819;SDS011;67762;52.476;6.046;2023-06-19T07:23:14;1999.90;;;999.90;;
43819;SDS011;67762;52.476;6.046;2023-06-19T07:25:40;1999.90;;;999.90;;
43819;SDS011;67762;52.476;6.046;2023-06-19T07:28:05;1999.90;;;999.90;;
43819;SDS011;67762;52.476;6.046;2023-06-19T07:30:31;1999.90;;;999.90;;
43819;SDS011;67762;52.476;6.046;2023-06-19T07:32:57;1999.90;;;999.90;;
43819;SDS011;67762;52.476;6.046;2023-06-19T07:35:23;1999.90;;;999.90;;
43819;SDS011;67762;52.476;6.046;2023-06-19T07:37:48;1999.90;;;999.90;;
43819;SDS011;67762;52.476;6.046;2023-06-19T07:40:14;1999.90;;;999.90;;
43819;SDS011;67762;52.476;6.046;2023-06-19T07:42:40;1999.90;;;999.90;;
43819;SDS011;67762;52.476;6.046;2023-06-19T07:45:05;1999.90;;;999.90;;
43819;SDS011;67762;52.476;6.046;2023-06-19T07:47:31;1999.90;;;999.90;;
43819;SDS011;67762;52.476;6.046;2023-06-19T07:49:57;1999.90;;;999.90;;
43819;SDS011;67762;52.476;6.046;2023-06-19T07:52:22;1999.90;;;999.90;;
43819;SDS011;67762;52.476;6.046;2023-06-19T07:54:52;1999.90;;;999.90;;
43819;SDS011;67762;52.476;6.046;2023-06-19T07:57:20;1999.90;;;999.90;;
43819;SDS011;67762;52.476;6.046;2023-06-19T07:59:46;1999.90;;;999.90;;
43819;SDS011;67762;52.476;6.046;2023-06-19T08:02:13;1999.90;;;999.90;;
43819;SDS011;67762;52.476;6.046;2023-06-19T08:04:39;1999.90;;;999.90;;
43819;SDS011;67762;52.476;6.046;2023-06-19T08:07:04;1999.90;;;999.90;;
43819;SDS011;67762;52.476;6.046;2023-06-19T08:09:30;1999.90;;;999.90;;
43819;SDS011;67762;52.476;6.046;2023-06-19T08:11:56;1999.90;;;999.90;;
43819;SDS011;67762;52.476;6.046;2023-06-19T08:14:22;1999.90;;;999.90;;
43819;SDS011;67762;52.476;6.046;2023-06-19T08:16:48;1999.90;;;999.90;;
43819;SDS011;67762;52.476;6.046;2023-06-19T08:19:14;1999.90;;;999.90;;
43819;SDS011;67762;52.476;6.046;2023-06-19T08:21:39;1999.90;;;999.90;;
43819;SDS011;67762;52.476;6.046;2023-06-19T08:24:05;1999.90;;;999.90;;
43819;SDS011;67762;52.476;6.046;2023-06-19T08:26:31;1999.90;;;999.90;;
43819;SDS011;67762;52.476;6.046;2023-06-19T08:28:57;1999.90;;;999.90;;
43819;SDS011;67762;52.476;6.046;2023-06-19T08:31:23;1999.90;;;999.90;;
43819;SDS011;67762;52.476;6.046;2023-06-19T08:33:55;1999.90;;;999.90;;
43819;SDS011;67762;52.476;6.046;2023-06-19T08:36:23;1999.90;;;999.90;;
43819;SDS011;67762;52.476;6.046;2023-06-19T08:38:49;1999.90;;;999.90;;
43819;SDS011;67762;52.476;6.046;2023-06-19T08:41:15;1999.90;;;999.90;;
43819;SDS011;67762;52.476;6.046;2023-06-19T08:43:44;1999.90;;;999.90;;
43819;SDS011;67762;52.476;6.046;2023-06-19T08:46:11;1999.90;;;999.90;;
43819;SDS011;67762;52.476;6.046;2023-06-19T08:48:37;1999.90;;;999.90;;
43819;SDS011;67762;52.476;6.046;2023-06-19T08:51:04;1999.90;;;999.90;;
43819;SDS011;67762;52.476;6.046;2023-06-19T08:53:37;1999.90;;;999.90;;
43819;SDS011;67762;52.476;6.046;2023-06-19T08:56:13;1999.90;;;999.90;;
43819;SDS011;67762;52.476;6.046;2023-06-19T08:58:39;1999.90;;;999.90;;
43819;SDS011;67762;52.476;6.046;2023-06-19T09:01:04;1999.90;;;999.90;;
43819;SDS011;67762;52.476;6.046;2023-06-19T09:03:30;1999.90;;;999.90;;
43819;SDS011;67762;52.476;6.046;2023-06-19T09:05:56;1999.90;;;999.90;;
43819;SDS011;67762;52.476;6.046;2023-06-19T09:08:22;1999.90;;;999.90;;
43819;SDS011;67762;52.476;6.046;2023-06-19T09:10:57;1999.90;;;999.90;;
43819;SDS011;67762;52.476;6.046;2023-06-19T09:13:24;1999.90;;;999.90;;
43819;SDS011;67762;52.476;6.046;2023-06-19T09:15:59;1999.90;;;999.90;;
43819;SDS011;67762;52.476;6.046;2023-06-19T09:18:31;1999.90;;;999.90;;
43819;SDS011;67762;52.476;6.046;2023-06-19T09:21:06;1999.90;;;999.90;;
43819;SDS011;67762;52.476;6.046;2023-06-19T09:23:43;1999.90;;;999.90;;
43819;SDS011;67762;52.476;6.046;2023-06-19T09:26:10;1999.90;;;999.90;;
43819;SDS011;67762;52.476;6.046;2023-06-19T09:28:40;1999.90;;;999.90;;
43819;SDS011;67762;52.476;6.046;2023-06-19T09:31:07;1999.90;;;999.90;;
43819;SDS011;67762;52.476;6.046;2023-06-19T09:33:34;1999.90;;;999.90;;
43819;SDS011;67762;52.476;6.046;2023-06-19T09:36:02;1999.90;;;999.90;;
43819;SDS011;67762;52.476;6.046;2023-06-19T09:38:30;1999.90;;;999.90;;
43819;SDS011;67762;52.476;6.046;2023-06-19T09:41:00;1999.90;;;999.90;;
43819;SDS011;67762;52.476;6.046;2023-06-19T09:43:36;1999.90;;;999.90;;
43819;SDS011;67762;52.476;6.046;2023-06-19T09:46:03;1999.90;;;999.90;;
43819;SDS011;67762;52.476;6.046;2023-06-19T09:48:31;1999.90;;;999.90;;
43819;SDS011;67762;52.476;6.046;2023-06-19T09:51:19;1999.90;;;999.90;;
43819;SDS011;67762;52.476;6.046;2023-06-19T09:53:50;1999.90;;;999.90;;
43819;SDS011;67762;52.476;6.046;2023-06-19T09:56:16;1999.90;;;999.90;;
43819;SDS011;67762;52.476;6.046;2023-06-19T09:58:47;1999.90;;;999.90;;
43819;SDS011;67762;52.476;6.046;2023-06-19T10:01:15;1999.90;;;999.90;;
43819;SDS011;67762;52.476;6.046;2023-06-19T10:03:44;1999.90;;;999.90;;
43819;SDS011;67762;52.476;6.046;2023-06-19T10:06:13;1999.90;;;999.90;;
43819;SDS011;67762;52.476;6.046;2023-06-19T10:08:45;1999.90;;;999.90;;
43819;SDS011;67762;52.476;6.046;2023-06-19T10:11:11;1999.90;;;999.90;;
43819;SDS011;67762;52.476;6.046;2023-06-19T10:13:37;1999.90;;;999.90;;
43819;SDS011;67762;52.476;6.046;2023-06-19T10:16:05;1999.90;;;999.90;;
43819;SDS011;67762;52.476;6.046;2023-06-19T10:18:31;1999.90;;;999.90;;
43819;SDS011;67762;52.476;6.046;2023-06-19T10:20:58;1999.90;;;999.90;;
43819;SDS011;67762;52.476;6.046;2023-06-19T10:23:24;1999.90;;;999.90;;
43819;SDS011;67762;52.476;6.046;2023-06-19T10:31:03;1999.90;;;999.90;;
43819;SDS011;67762;52.476;6.046;2023-06-19T10:33:30;1999.90;;;999.90;;
43819;SDS011;67762;52.476;6.046;2023-06-19T10:35:58;1999.90;;;999.90;;
43819;SDS011;67762;52.476;6.046;2023-06-19T10:38:25;1999.90;;;999.90;;
43819;SDS011;67762;52.476;6.046;2023-06-19T10:40:51;1999.90;;;999.90;;
43819;SDS011;67762;52.476;6.046;2023-06-19T10:43:20;1999.90;;;999.90;;
43819;SDS011;67762;52.476;6.046;2023-06-19T10:45:50;1999.90;;;999.90;;
43819;SDS011;67762;52.476;6.046;2023-06-19T10:48:23;1999.90;;;999.90;;
43819;SDS011;67762;52.476;6.046;2023-06-19T10:50:49;119.35;;;112.00;;
43819;SDS011;67762;52.476;6.046;2023-06-19T10:55:59;1999.90;;;999.90;;
43819;SDS011;67762;52.476;6.046;2023-06-19T10:58:27;1999.90;;;999.90;;
43819;SDS011;67762;52.476;6.046;2023-06-19T11:00:53;1999.90;;;999.90;;
43819;SDS011;67762;52.476;6.046;2023-06-19T11:03:19;1999.90;;;999.90;;
43819;SDS011;67762;52.476;6.046;2023-06-19T11:05:46;1999.90;;;999.90;;
43819;SDS011;67762;52.476;6.046;2023-06-19T11:08:19;1999.90;;;999.90;;
43819;SDS011;67762;52.476;6.046;2023-06-19T11:10:46;1999.90;;;999.90;;
43819;SDS011;67762;52.476;6.046;2023-06-19T11:13:19;301.02;;;284.48;;
43819;SDS011;67762;52.476;6.046;2023-06-19T11:15:46;701.75;;;441.48;;
43819;SDS011;67762;52.476;6.046;2023-06-19T11:18:14;241.45;;;228.15;;
43819;SDS011;67762;52.476;6.046;2023-06-19T11:25:41;214.98;;;202.98;;
43819;SDS011;67762;52.476;6.046;2023-06-19T11:28:14;682.20;;;422.67;;
43819;SDS011;67762;52.476;6.046;2023-06-19T11:30:43;138.95;;;131.55;;
43819;SDS011;67762;52.476;6.046;2023-06-19T11:33:42;170.75;;;161.65;;
43819;SDS011;67762;52.476;6.046;2023-06-19T11:36:02;189.35;;;178.20;;
43819;SDS011;67762;52.476;6.046;2023-06-19T11:38:29;249.80;;;235.85;;
43819;SDS011;67762;52.476;6.046;2023-06-19T11:40:55;219.85;;;207.75;;
43819;SDS011;67762;52.476;6.046;2023-06-19T11:43:29;154.57;;;146.40;;
43819;SDS011;67762;52.476;6.046;2023-06-19T11:46:06;178.73;;;169.10;;
43819;SDS011;67762;52.476;6.046;2023-06-19T11:48:36;159.32;;;150.05;;
43819;SDS011;67762;52.476;6.046;2023-06-19T11:51:02;212.48;;;200.32;;
43819;SDS011;67762;52.476;6.046;2023-06-19T11:53:28;111.15;;;104.63;;
43819;SDS011;67762;52.476;6.046;2023-06-19T11:55:54;133.25;;;125.90;;
43819;SDS011;67762;52.476;6.046;2023-06-19T11:58:21;133.18;;;125.15;;
43819;SDS011;67762;52.476;6.046;2023-06-19T12:00:47;178.75;;;169.25;;
43819;SDS011;67762;52.476;6.046;2023-06-19T12:03:13;268.30;;;253.15;;
43819;SDS011;67762;52.476;6.046;2023-06-19T12:05:39;201.95;;;190.80;;
43819;SDS011;67762;52.476;6.046;2023-06-19T12:08:05;138.43;;;130.82;;
43819;SDS011;67762;52.476;6.046;2023-06-19T12:10:32;152.32;;;143.48;;
43819;SDS011;67762;52.476;6.046;2023-06-19T12:12:58;102.38;;;96.60;;
43819;SDS011;67762;52.476;6.046;2023-06-19T12:15:24;143.60;;;135.50;;
43819;SDS011;67762;52.476;6.046;2023-06-19T12:17:50;94.60;;;89.18;;
43819;SDS011;67762;52.476;6.046;2023-06-19T12:20:17;113.43;;;106.68;;
43819;SDS011;67762;52.476;6.046;2023-06-19T12:22:43;129.43;;;121.72;;
43819;SDS011;67762;52.476;6.046;2023-06-19T12:25:09;152.02;;;143.02;;
43819;SDS011;67762;52.476;6.046;2023-06-19T12:27:36;85.38;;;80.13;;
43819;SDS011;67762;52.476;6.046;2023-06-19T12:30:03;71.88;;;67.30;;
43819;SDS011;67762;52.476;6.046;2023-06-19T12:32:30;76.15;;;71.57;;
43819;SDS011;67762;52.476;6.046;2023-06-19T12:34:56;98.32;;;92.55;;
43819;SDS011;67762;52.476;6.046;2023-06-19T12:37:22;96.93;;;91.20;;
43819;SDS011;67762;52.476;6.046;2023-06-19T12:39:48;70.80;;;66.72;;
43819;SDS011;67762;52.476;6.046;2023-06-19T12:42:15;62.03;;;58.00;;
43819;SDS011;67762;52.476;6.046;2023-06-19T12:44:41;59.40;;;55.97;;
43819;SDS011;67762;52.476;6.046;2023-06-19T12:47:08;61.95;;;58.33;;
43819;SDS011;67762;52.476;6.046;2023-06-19T12:49:33;79.88;;;75.18;;
43819;SDS011;67762;52.476;6.046;2023-06-19T12:51:59;77.22;;;72.63;;
43819;SDS011;67762;52.476;6.046;2023-06-19T12:54:25;68.82;;;64.72;;
43819;SDS011;67762;52.476;6.046;2023-06-19T12:56:52;65.40;;;61.50;;
43819;SDS011;67762;52.476;6.046;2023-06-19T12:59:17;71.15;;;66.95;;
43819;SDS011;67762;52.476;6.046;2023-06-19T13:01:43;92.93;;;87.40;;
43819;SDS011;67762;52.476;6.046;2023-06-19T13:04:09;57.67;;;53.97;;
43819;SDS011;67762;52.476;6.046;2023-06-19T13:06:36;77.50;;;72.97;;
43819;SDS011;67762;52.476;6.046;2023-06-19T13:09:02;63.63;;;59.80;;
43819;SDS011;67762;52.476;6.046;2023-06-19T13:11:29;57.35;;;53.45;;
43819;SDS011;67762;52.476;6.046;2023-06-19T13:13:54;62.70;;;58.75;;
43819;SDS011;67762;52.476;6.046;2023-06-19T13:16:20;54.70;;;51.17;;
43819;SDS011;67762;52.476;6.046;2023-06-19T13:18:46;56.88;;;53.22;;
43819;SDS011;67762;52.476;6.046;2023-06-19T13:21:11;53.15;;;49.88;;
43819;SDS011;67762;52.476;6.046;2023-06-19T13:23:37;70.97;;;66.07;;
43819;SDS011;67762;52.476;6.046;2023-06-19T13:26:04;56.88;;;53.50;;
43819;SDS011;67762;52.476;6.046;2023-06-19T13:28:31;68.72;;;64.15;;
43819;SDS011;67762;52.476;6.046;2023-06-19T13:30:57;58.45;;;54.85;;
43819;SDS011;67762;52.476;6.046;2023-06-19T13:33:22;59.53;;;55.85;;
43819;SDS011;67762;52.476;6.046;2023-06-19T13:35:48;56.33;;;52.75;;
43819;SDS011;67762;52.476;6.046;2023-06-19T13:38:13;55.85;;;52.47;;
43819;SDS011;67762;52.476;6.046;2023-06-19T13:40:41;62.05;;;58.45;;
43819;SDS011;67762;52.476;6.046;2023-06-19T13:43:07;50.55;;;47.40;;
43819;SDS011;67762;52.476;6.046;2023-06-19T13:45:32;59.42;;;55.78;;
43819;SDS011;67762;52.476;6.046;2023-06-19T13:48:00;51.70;;;48.17;;
43819;SDS011;67762;52.476;6.046;2023-06-19T13:50:27;47.70;;;44.53;;
43819;SDS011;67762;52.476;6.046;2023-06-19T13:52:52;50.67;;;47.47;;
43819;SDS011;67762;52.476;6.046;2023-06-19T13:55:19;42.47;;;39.75;;
43819;SDS011;67762;52.476;6.046;2023-06-19T13:57:45;43.08;;;40.45;;
43819;SDS011;67762;52.476;6.046;2023-06-19T14:00:11;63.75;;;60.03;;
43819;SDS011;67762;52.476;6.046;2023-06-19T14:02:40;58.40;;;54.90;;
43819;SDS011;67762;52.476;6.046;2023-06-19T14:05:06;53.10;;;49.95;;
43819;SDS011;67762;52.476;6.046;2023-06-19T14:07:33;43.92;;;41.15;;
43819;SDS011;67762;52.476;6.046;2023-06-19T14:10:00;50.08;;;46.92;;
43819;SDS011;67762;52.476;6.046;2023-06-19T14:12:27;51.13;;;48.03;;